Time;durP1;ratioP1;P1;durP2;ratioP2;P2;SDS_P1;SDS_P2;PMS_P1;PMS_P2;Temp;Humidity;BMP_temperature;BMP_pressure;BME280_temperature;BME280_humidity;BME280_pressure;Samples;Min_cycle;Max_cycle;Signal;HPM_P1;HPM_P2
2021/07/26 00:01:35;;;;;;;1.60;1.00;;;20.20;99.90;;;;;;5074070;28;20412;-59
2021/07/26 00:04:02;;;;;;;1.40;0.80;;;20.30;99.90;;;;;;5073482;28;20510;-58
2021/07/26 00:06:29;;;;;;;1.88;0.90;;;20.50;99.90;;;;;;5073474;28;20430;-59
2021/07/26 00:08:55;;;;;;;1.30;0.80;;;20.50;99.90;;;;;;5073538;28;20404;-59
2021/07/26 00:11:22;;;;;;;1.40;0.80;;;20.40;99.90;;;;;;5073282;28;20859;-59
2021/07/26 00:13:49;;;;;;;2.50;0.80;;;20.60;99.90;;;;;;5074577;28;20426;-59
2021/07/26 00:16:17;;;;;;;1.40;0.80;;;20.50;99.90;;;;;;5076022;28;20437;-59
2021/07/26 00:18:44;;;;;;;1.10;0.80;;;20.40;99.90;;;;;;5075231;28;20426;-59
2021/07/26 00:21:11;;;;;;;1.50;0.82;;;20.30;99.90;;;;;;5074978;28;20438;-59
2021/07/26 00:23:38;;;;;;;1.23;1.00;;;20.30;99.90;;;;;;5075024;28;20510;-59
2021/07/26 00:26:05;;;;;;;1.40;0.90;;;20.10;99.90;;;;;;5073978;28;20465;-59
2021/07/26 00:28:32;;;;;;;1.30;1.00;;;19.80;99.90;;;;;;5073582;28;20411;-59
2021/07/26 00:30:59;;;;;;;1.70;0.90;;;19.60;99.90;;;;;;5073722;28;20430;-59
2021/07/26 00:34:26;;;;;;;1.80;0.90;;;19.60;99.90;;;;;;5073841;28;20438;-59
2021/07/26 00:36:55;;;;;;;2.00;1.10;;;19.60;99.90;;;;;;5045256;28;20416;-60
2021/07/26 00:39:24;;;;;;;1.50;0.90;;;19.60;99.90;;;;;;5074446;28;20839;-59
2021/07/26 00:41:52;;;;;;;2.20;1.00;;;19.40;99.90;;;;;;5073784;28;20707;-59
2021/07/26 00:44:20;;;;;;;1.30;0.90;;;19.40;99.90;;;;;;5073231;28;20849;-59
2021/07/26 00:46:48;;;;;;;1.40;1.00;;;19.50;99.90;;;;;;5073702;28;20420;-59
2021/07/26 00:49:16;;;;;;;2.10;1.00;;;19.50;99.90;;;;;;5073262;28;20420;-59
2021/07/26 00:51:45;;;;;;;1.50;1.20;;;19.40;99.90;;;;;;5075376;28;20438;-59
2021/07/26 00:54:16;;;;;;;1.70;1.00;;;19.50;99.90;;;;;;5075145;28;20712;-59
2021/07/26 00:56:43;;;;;;;2.00;0.90;;;19.60;99.90;;;;;;5075437;28;20840;-59
2021/07/26 00:59:11;;;;;;;1.55;0.93;;;19.60;99.90;;;;;;5075059;28;20424;-59
2021/07/26 01:01:38;;;;;;;1.30;0.90;;;19.60;99.90;;;;;;5074342;28;20501;-59
2021/07/26 01:04:05;;;;;;;1.70;0.90;;;19.50;99.90;;;;;;5074594;28;20416;-59
2021/07/26 01:06:32;;;;;;;1.50;0.90;;;19.60;99.90;;;;;;5074932;28;20498;-59
2021/07/26 01:08:59;;;;;;;1.20;1.00;;;19.70;99.90;;;;;;5074447;28;20420;-59
2021/07/26 01:11:27;;;;;;;1.33;1.10;;;19.60;99.90;;;;;;5074009;28;20411;-59
2021/07/26 01:13:54;;;;;;;2.10;1.00;;;19.30;99.90;;;;;;5073209;28;20419;-59
2021/07/26 01:16:23;;;;;;;1.40;1.00;;;19.20;99.90;;;;;;5072529;28;20526;-59
2021/07/26 01:18:51;;;;;;;2.80;1.00;;;19.20;99.90;;;;;;5071782;28;20424;-59
2021/07/26 01:21:20;;;;;;;1.30;1.00;;;19.20;99.90;;;;;;5072806;28;20431;-59
2021/07/26 01:23:49;;;;;;;2.20;1.20;;;19.20;99.90;;;;;;5073137;28;20425;-59
2021/07/26 01:26:18;;;;;;;2.58;1.20;;;19.10;99.90;;;;;;5074240;28;20450;-59
2021/07/26 01:28:47;;;;;;;2.22;1.20;;;19.10;99.90;;;;;;5074738;28;20423;-59
2021/07/26 01:31:14;;;;;;;1.50;1.00;;;19.00;99.90;;;;;;5074707;28;20427;-59
2021/07/26 01:33:42;;;;;;;1.40;1.00;;;18.90;99.90;;;;;;5074253;28;20434;-59
2021/07/26 01:36:11;;;;;;;1.90;1.20;;;18.80;99.90;;;;;;5074821;28;20522;-59
2021/07/26 01:38:39;;;;;;;1.75;1.00;;;18.80;99.90;;;;;;5074454;28;20459;-59
2021/07/26 01:41:07;;;;;;;2.00;1.00;;;18.70;99.90;;;;;;5074820;28;20914;-59
2021/07/26 01:43:38;;;;;;;1.40;1.00;;;18.70;99.90;;;;;;5074728;28;20723;-59
2021/07/26 01:46:15;;;;;;;2.10;1.00;;;18.70;99.90;;;;;;5074417;28;20431;-59
2021/07/26 01:48:49;;;;;;;2.40;1.20;;;18.70;99.90;;;;;;5074240;28;20419;-59
2021/07/26 01:51:19;;;;;;;1.55;1.20;;;18.60;99.90;;;;;;5074147;28;20427;-59
2021/07/26 01:53:48;;;;;;;1.40;0.97;;;18.60;99.90;;;;;;5071892;28;20431;-59
2021/07/26 01:56:15;;;;;;;1.80;1.10;;;18.50;99.90;;;;;;5070424;28;20434;-58
2021/07/26 01:58:43;;;;;;;1.87;1.10;;;18.50;99.90;;;;;;5071711;28;20701;-59
2021/07/26 02:01:10;;;;;;;1.48;1.00;;;18.50;99.90;;;;;;5071812;28;20733;-58
2021/07/26 02:03:37;;;;;;;1.40;1.00;;;18.60;99.90;;;;;;5071456;28;20416;-58
2021/07/26 02:06:04;;;;;;;1.30;1.00;;;18.70;99.90;;;;;;5071332;28;20518;-59
2021/07/26 02:08:31;;;;;;;2.20;1.00;;;18.70;99.90;;;;;;5071390;28;20424;-59
2021/07/26 02:10:59;;;;;;;1.80;1.00;;;18.60;99.90;;;;;;5074309;28;20819;-58
2021/07/26 02:13:26;;;;;;;1.45;1.00;;;18.80;99.90;;;;;;5073633;28;20431;-58
2021/07/26 02:15:53;;;;;;;1.23;0.90;;;18.70;99.90;;;;;;5074197;28;20523;-58
2021/07/26 02:18:19;;;;;;;1.45;0.95;;;18.70;99.90;;;;;;5074381;28;20419;-58
2021/07/26 02:20:46;;;;;;;1.77;1.00;;;18.60;99.90;;;;;;5074214;28;20431;-58
2021/07/26 02:23:13;;;;;;;3.53;1.10;;;18.70;99.90;;;;;;5073835;28;20415;-58
2021/07/26 02:25:40;;;;;;;2.20;1.00;;;18.70;99.90;;;;;;5074391;28;20935;-58
2021/07/26 02:28:09;;;;;;;1.50;1.00;;;18.70;99.90;;;;;;5074332;28;20427;-58
2021/07/26 02:30:37;;;;;;;2.40;0.90;;;18.70;99.90;;;;;;5074886;28;20431;-58
2021/07/26 02:33:04;;;;;;;1.60;1.00;;;18.60;99.90;;;;;;5077381;28;20438;-58
2021/07/26 02:35:30;;;;;;;1.45;1.00;;;18.60;99.90;;;;;;5077717;28;20431;-58
2021/07/26 02:37:58;;;;;;;1.40;1.00;;;18.60;99.90;;;;;;5077206;28;20442;-58
2021/07/26 02:40:27;;;;;;;1.50;0.95;;;18.60;99.90;;;;;;5076974;28;20427;-58
2021/07/26 02:42:55;;;;;;;1.50;1.00;;;18.60;99.90;;;;;;5076228;28;20571;-58
2021/07/26 02:45:23;;;;;;;2.10;1.10;;;18.70;99.90;;;;;;5076473;28;20557;-58
2021/07/26 02:47:50;;;;;;;1.60;1.00;;;18.80;99.90;;;;;;5075924;28;20419;-58
2021/07/26 02:50:17;;;;;;;1.42;1.10;;;18.80;99.90;;;;;;5076135;28;20431;-58
2021/07/26 02:52:44;;;;;;;1.50;1.10;;;18.80;99.90;;;;;;5075650;28;20445;-58
2021/07/26 02:55:12;;;;;;;1.50;0.90;;;18.70;99.90;;;;;;5075551;28;20427;-58
2021/07/26 02:57:39;;;;;;;2.10;1.10;;;18.60;99.90;;;;;;5077512;28;20960;-58
2021/07/26 03:00:07;;;;;;;1.70;1.10;;;18.60;99.90;;;;;;5077859;28;20423;-57
2021/07/26 03:02:36;;;;;;;2.10;1.15;;;18.60;99.90;;;;;;5077023;28;20423;-57
2021/07/26 03:05:03;;;;;;;2.40;0.90;;;18.60;99.90;;;;;;5076712;28;20428;-58
2021/07/26 03:07:31;;;;;;;2.00;1.00;;;18.60;99.90;;;;;;5076852;28;20699;-58
2021/07/26 03:09:58;;;;;;;1.20;1.00;;;18.60;99.90;;;;;;5076601;28;20427;-58
2021/07/26 03:12:25;;;;;;;1.30;0.90;;;18.60;99.90;;;;;;5076984;28;20878;-58
2021/07/26 03:14:52;;;;;;;2.78;1.00;;;18.70;99.90;;;;;;5077026;28;20428;-58
2021/07/26 03:17:19;;;;;;;1.45;0.93;;;18.70;99.90;;;;;;5076690;28;20422;-58
2021/07/26 03:19:47;;;;;;;1.83;1.00;;;18.80;99.90;;;;;;5077047;28;20538;-58
2021/07/26 03:22:59;;;;;;;1.20;0.80;;;18.90;99.90;;;;;;5076883;28;20715;-58
2021/07/26 03:25:26;;;;;;;1.30;1.00;;;19.40;99.90;;;;;;5076755;28;20423;-58
2021/07/26 03:27:53;;;;;;;1.40;1.00;;;19.50;99.90;;;;;;5075734;28;20510;-59
2021/07/26 03:30:22;;;;;;;1.80;0.90;;;19.70;99.90;;;;;;5075213;28;20795;-58
2021/07/26 03:32:49;;;;;;;1.90;0.90;;;19.80;99.90;;;;;;5074719;28;20489;-59
2021/07/26 03:35:18;;;;;;;1.10;0.90;;;19.80;99.90;;;;;;5073097;28;20433;-59
2021/07/26 03:37:45;;;;;;;1.20;0.87;;;19.70;99.90;;;;;;5073547;28;20430;-58
2021/07/26 03:40:13;;;;;;;1.90;0.90;;;19.70;99.90;;;;;;5073979;28;20737;-58
2021/07/26 03:42:41;;;;;;;1.35;0.90;;;19.70;99.90;;;;;;5074019;28;20815;-58
2021/07/26 03:45:10;;;;;;;1.40;0.80;;;19.70;99.90;;;;;;5074027;28;20408;-58
2021/07/26 03:47:38;;;;;;;1.50;0.90;;;19.80;99.90;;;;;;5075663;28;20426;-59
2021/07/26 03:50:07;;;;;;;1.10;0.88;;;19.90;99.90;;;;;;5075187;28;20746;-59
2021/07/26 03:52:44;;;;;;;1.20;0.90;;;19.90;99.90;;;;;;5074432;28;20416;-59
2021/07/26 03:55:13;;;;;;;1.50;0.93;;;19.60;99.90;;;;;;5074501;28;20522;-58
2021/07/26 03:57:40;;;;;;;1.30;0.90;;;19.50;99.90;;;;;;5074479;28;20424;-58
2021/07/26 04:00:08;;;;;;;1.00;0.80;;;19.30;99.90;;;;;;5073665;28;20420;-58
2021/07/26 04:02:36;;;;;;;1.80;1.00;;;19.20;99.90;;;;;;5074966;28;20426;-58
2021/07/26 04:05:05;;;;;;;2.20;1.10;;;19.10;99.90;;;;;;5074843;28;20435;-58
2021/07/26 04:07:36;;;;;;;1.50;0.90;;;19.00;99.90;;;;;;5075856;28;20553;-58
2021/07/26 04:10:07;;;;;;;1.40;0.90;;;19.10;99.90;;;;;;5074852;28;20423;-58
2021/07/26 04:12:35;;;;;;;1.40;0.90;;;19.60;99.90;;;;;;5074105;28;20420;-58
2021/07/26 04:15:08;;;;;;;1.50;1.00;;;19.50;99.90;;;;;;5074225;28;20424;-58
2021/07/26 04:17:35;;;;;;;1.90;0.90;;;19.40;99.90;;;;;;5074248;28;20506;-58
2021/07/26 04:20:03;;;;;;;1.42;1.00;;;19.20;99.90;;;;;;5074092;28;20443;-58
2021/07/26 04:22:30;;;;;;;1.40;1.00;;;19.10;99.90;;;;;;5074630;28;20858;-58
2021/07/26 04:24:57;;;;;;;1.40;0.98;;;19.00;99.90;;;;;;5073471;28;20419;-59
2021/07/26 04:27:26;;;;;;;1.33;0.90;;;18.80;99.90;;;;;;5074070;28;20502;-57
2021/07/26 04:29:54;;;;;;;1.20;0.90;;;18.80;99.90;;;;;;5073471;28;20452;-58
2021/07/26 04:32:21;;;;;;;1.60;1.02;;;18.80;99.90;;;;;;5073823;28;20424;-58
2021/07/26 04:34:48;;;;;;;1.80;1.00;;;18.80;99.90;;;;;;5073806;28;20458;-58
2021/07/26 04:37:14;;;;;;;1.90;1.00;;;18.80;99.90;;;;;;5074003;28;20895;-58
2021/07/26 04:39:41;;;;;;;1.30;0.82;;;18.80;99.90;;;;;;5074491;28;20525;-58
2021/07/26 04:42:08;;;;;;;1.30;0.80;;;18.80;99.90;;;;;;5075233;28;20420;-58
2021/07/26 04:44:39;;;;;;;1.60;1.00;;;18.70;99.90;;;;;;5074053;28;20525;-58
2021/07/26 04:47:07;;;;;;;1.70;0.95;;;18.80;99.90;;;;;;5073076;28;20718;-58
2021/07/26 04:49:34;;;;;;;1.80;0.90;;;18.90;99.90;;;;;;5071662;28;20427;-59
2021/07/26 04:52:01;;;;;;;1.98;0.90;;;19.00;99.90;;;;;;5071867;28;20729;-59
2021/07/26 04:54:28;;;;;;;1.30;0.90;;;18.90;99.90;;;;;;5070364;28;20428;-58
2021/07/26 04:56:55;;;;;;;1.40;1.00;;;19.20;99.90;;;;;;5072420;28;20426;-58
2021/07/26 04:59:21;;;;;;;2.05;1.00;;;19.40;99.90;;;;;;5071934;28;20431;-59
2021/07/26 05:01:49;;;;;;;1.20;0.90;;;19.60;99.90;;;;;;5073705;28;20412;-59
2021/07/26 05:04:17;;;;;;;1.43;0.90;;;19.70;99.90;;;;;;5074688;28;20487;-60
2021/07/26 05:06:43;;;;;;;2.30;1.00;;;19.60;99.90;;;;;;5074392;28;20713;-60
2021/07/26 05:09:10;;;;;;;1.50;1.00;;;19.50;99.90;;;;;;5073064;28;20419;-60
2021/07/26 05:11:40;;;;;;;1.17;0.90;;;19.50;99.90;;;;;;5073652;28;20416;-60
2021/07/26 05:14:07;;;;;;;1.50;0.90;;;19.60;99.90;;;;;;5070888;28;20552;-60
2021/07/26 05:16:34;;;;;;;2.20;1.00;;;19.60;99.90;;;;;;5073681;28;20419;-60
2021/07/26 05:19:02;;;;;;;1.30;1.00;;;19.40;99.90;;;;;;5073317;28;20427;-58
2021/07/26 05:21:29;;;;;;;2.42;1.00;;;19.20;99.90;;;;;;5072560;28;20423;-58
2021/07/26 05:23:56;;;;;;;1.35;0.90;;;19.00;99.90;;;;;;5071599;28;20694;-59
2021/07/26 05:26:23;;;;;;;1.40;0.90;;;18.90;99.90;;;;;;5071025;28;20424;-59
2021/07/26 05:28:50;;;;;;;2.08;1.00;;;18.90;99.90;;;;;;5071564;28;20426;-59
2021/07/26 05:31:17;;;;;;;1.20;1.00;;;18.80;99.90;;;;;;5071732;28;20994;-59
2021/07/26 05:33:44;;;;;;;1.93;1.00;;;18.80;99.90;;;;;;5071825;28;20431;-59
2021/07/26 05:36:14;;;;;;;1.33;0.90;;;18.80;99.90;;;;;;5071551;28;20453;-60
2021/07/26 05:38:40;;;;;;;2.20;1.00;;;18.80;99.90;;;;;;5072831;28;20506;-59
2021/07/26 05:41:08;;;;;;;1.38;1.00;;;18.90;99.90;;;;;;5071318;28;20433;-59
2021/07/26 05:43:37;;;;;;;1.27;1.00;;;18.90;99.90;;;;;;5071549;28;20415;-60
2021/07/26 05:46:04;;;;;;;1.35;0.90;;;19.10;99.90;;;;;;5070832;28;20713;-59
2021/07/26 05:48:31;;;;;;;2.10;1.00;;;19.50;99.90;;;;;;5070436;28;20455;-59
2021/07/26 05:50:58;;;;;;;1.10;0.90;;;19.70;99.90;;;;;;5071847;28;20511;-60
2021/07/26 05:53:26;;;;;;;2.10;0.80;;;19.90;99.90;;;;;;5071488;28;20474;-60
2021/07/26 05:55:53;;;;;;;1.40;0.90;;;20.10;99.90;;;;;;5072511;28;20434;-60
2021/07/26 05:58:20;;;;;;;2.22;1.00;;;20.30;99.90;;;;;;5071605;28;20727;-60
2021/07/26 06:00:57;;;;;;;2.50;0.90;;;20.40;99.90;;;;;;5071299;28;20546;-60
2021/07/26 06:03:24;;;;;;;1.90;0.90;;;20.40;99.90;;;;;;5072828;28;20420;-59
2021/07/26 06:05:51;;;;;;;1.10;0.80;;;20.40;99.90;;;;;;5073169;28;20427;-59
2021/07/26 06:08:18;;;;;;;2.00;1.25;;;20.50;99.90;;;;;;5072401;28;20925;-60
2021/07/26 06:10:46;;;;;;;2.95;1.85;;;20.50;99.90;;;;;;5072672;28;20857;-59
2021/07/26 06:13:13;;;;;;;1.90;0.98;;;20.40;99.90;;;;;;5073069;28;20411;-59
2021/07/26 06:15:40;;;;;;;1.50;0.90;;;20.40;99.90;;;;;;5073568;28;20427;-59
2021/07/26 06:18:07;;;;;;;1.60;0.80;;;20.40;99.90;;;;;;5073380;28;20426;-60
2021/07/26 06:20:34;;;;;;;2.00;0.90;;;20.40;99.90;;;;;;5074211;28;20423;-67
2021/07/26 06:23:01;;;;;;;1.20;0.88;;;20.30;99.90;;;;;;5074889;28;20427;-60
2021/07/26 06:25:28;;;;;;;1.60;0.90;;;20.40;99.90;;;;;;5072894;28;20788;-60
2021/07/26 06:27:56;;;;;;;3.60;1.00;;;20.60;99.90;;;;;;5071617;28;20792;-60
2021/07/26 06:30:23;;;;;;;1.83;0.90;;;20.70;99.90;;;;;;5074737;28;20518;-60
2021/07/26 06:32:53;;;;;;;2.70;0.80;;;20.80;99.90;;;;;;5087232;28;20417;-60
2021/07/26 06:35:20;;;;;;;1.17;0.80;;;21.00;99.90;;;;;;5086908;28;20526;-59
2021/07/26 06:37:47;;;;;;;1.30;0.80;;;20.90;99.90;;;;;;5090318;28;20418;-59
2021/07/26 06:40:15;;;;;;;1.20;0.80;;;20.90;99.90;;;;;;5093347;28;20733;-59
2021/07/26 06:42:42;;;;;;;2.40;0.80;;;20.90;99.90;;;;;;5092665;28;20442;-61
2021/07/26 06:45:11;;;;;;;1.70;0.88;;;21.00;99.90;;;;;;5093814;28;20444;-59
2021/07/26 06:47:38;;;;;;;1.08;0.80;;;21.10;99.90;;;;;;5092624;28;20544;-60
2021/07/26 06:50:06;;;;;;;1.98;0.77;;;21.30;99.90;;;;;;5093349;28;20551;-59
2021/07/26 06:52:33;;;;;;;1.30;0.80;;;21.40;99.90;;;;;;5093767;28;20424;-59
2021/07/26 06:55:00;;;;;;;2.00;0.70;;;21.40;99.90;;;;;;5093290;28;20432;-60
2021/07/26 06:57:27;;;;;;;1.00;0.80;;;21.40;99.90;;;;;;5091151;28;20418;-58
2021/07/26 06:59:54;;;;;;;1.50;0.80;;;21.40;99.90;;;;;;5090882;28;20520;-59
2021/07/26 07:02:22;;;;;;;1.38;0.80;;;21.50;99.90;;;;;;5091482;28;20467;-59
2021/07/26 07:04:49;;;;;;;1.00;0.65;;;21.40;99.90;;;;;;5090485;28;20414;-59
2021/07/26 07:07:16;;;;;;;1.00;0.70;;;21.40;99.90;;;;;;5090718;28;20416;-59
2021/07/26 07:09:43;;;;;;;1.60;0.80;;;21.50;99.90;;;;;;5088173;28;20521;-58
2021/07/26 07:12:10;;;;;;;1.10;0.80;;;21.50;99.90;;;;;;5094652;28;20817;-59
2021/07/26 07:14:36;;;;;;;1.00;0.70;;;21.60;99.90;;;;;;5091984;28;20430;-59
2021/07/26 07:17:04;;;;;;;1.20;0.70;;;21.60;99.90;;;;;;5092996;28;20512;-59
2021/07/26 07:19:32;;;;;;;1.00;0.70;;;21.60;99.90;;;;;;5092188;28;20437;-59
2021/07/26 07:21:59;;;;;;;2.00;0.80;;;21.70;99.90;;;;;;5091820;28;20430;-60
2021/07/26 07:24:26;;;;;;;2.30;0.80;;;21.80;99.90;;;;;;5093540;28;20871;-60
2021/07/26 07:26:53;;;;;;;1.83;0.70;;;21.80;99.90;;;;;;5093181;28;20960;-60
2021/07/26 07:29:20;;;;;;;1.10;0.70;;;21.80;99.90;;;;;;5093608;28;20822;-60
2021/07/26 07:31:46;;;;;;;0.80;0.70;;;22.10;99.90;;;;;;5092366;28;20568;-59
2021/07/26 07:34:15;;;;;;;1.67;0.70;;;22.30;99.90;;;;;;5086007;28;20422;-59
2021/07/26 07:36:43;;;;;;;1.35;0.70;;;22.40;99.90;;;;;;5091095;28;20472;-60
2021/07/26 07:39:10;;;;;;;1.00;0.70;;;22.50;99.90;;;;;;5092527;28;20413;-60
2021/07/26 07:41:37;;;;;;;1.00;0.60;;;22.60;99.90;;;;;;5093759;28;20456;-60
2021/07/26 07:44:05;;;;;;;0.90;0.60;;;22.80;99.90;;;;;;5094148;28;20493;-59
2021/07/26 07:46:32;;;;;;;1.00;0.70;;;22.90;99.90;;;;;;5095020;28;20410;-60
2021/07/26 07:48:59;;;;;;;0.90;0.60;;;22.90;99.90;;;;;;5094887;28;20500;-59
2021/07/26 07:51:26;;;;;;;0.80;0.60;;;22.90;99.90;;;;;;5095101;28;20509;-60
2021/07/26 07:53:56;;;;;;;0.90;0.70;;;22.90;99.90;;;;;;5094982;28;20430;-60
2021/07/26 07:56:23;;;;;;;1.20;0.60;;;22.90;99.90;;;;;;5094782;28;20429;-60
2021/07/26 07:58:52;;;;;;;0.88;0.60;;;22.90;99.90;;;;;;5094382;28;20429;-61
2021/07/26 08:01:19;;;;;;;1.13;0.70;;;22.90;99.90;;;;;;5094063;28;20488;-60
2021/07/26 08:03:46;;;;;;;2.80;0.60;;;22.90;99.90;;;;;;5095826;28;20417;-60
2021/07/26 08:06:13;;;;;;;1.20;0.70;;;23.00;99.90;;;;;;5095066;28;20433;-60
2021/07/26 08:08:40;;;;;;;1.10;0.70;;;23.20;99.90;;;;;;5092771;28;20444;-60
2021/07/26 08:11:09;;;;;;;1.20;0.60;;;23.50;99.90;;;;;;5091698;28;20418;-59
2021/07/26 08:13:37;;;;;;;1.10;0.60;;;23.70;99.90;;;;;;5093006;28;20814;-59
2021/07/26 08:16:05;;;;;;;1.20;0.60;;;23.60;99.90;;;;;;5093269;28;20406;-60
2021/07/26 08:18:32;;;;;;;0.90;0.60;;;23.70;99.90;;;;;;5092241;28;20756;-61
2021/07/26 08:20:59;;;;;;;0.93;0.60;;;23.70;99.90;;;;;;5089170;28;20421;-61
2021/07/26 08:23:26;;;;;;;0.90;0.60;;;23.70;99.90;;;;;;5091133;28;20729;-60
2021/07/26 08:25:53;;;;;;;1.37;0.60;;;23.60;99.90;;;;;;5090440;28;20422;-60
2021/07/26 08:28:21;;;;;;;1.10;0.70;;;23.40;99.90;;;;;;5090198;28;20428;-60
2021/07/26 08:30:48;;;;;;;0.90;0.60;;;23.40;99.90;;;;;;5088826;28;20428;-60
2021/07/26 08:33:14;;;;;;;1.77;0.77;;;23.50;99.90;;;;;;5089241;28;20421;-61
2021/07/26 08:35:42;;;;;;;1.30;0.70;;;23.50;99.90;;;;;;5088471;28;20516;-61
2021/07/26 08:38:08;;;;;;;0.90;0.60;;;23.60;99.90;;;;;;5087613;28;20424;-60
2021/07/26 08:40:36;;;;;;;0.80;0.50;;;23.70;99.90;;;;;;5088493;28;20425;-61
2021/07/26 08:43:07;;;;;;;0.90;0.60;;;23.90;99.90;;;;;;5089106;28;20441;-61
2021/07/26 08:45:36;;;;;;;1.00;0.68;;;23.90;99.90;;;;;;5089346;28;20422;-61
2021/07/26 08:48:07;;;;;;;3.40;0.70;;;24.00;99.90;;;;;;5089067;28;20425;-61
2021/07/26 08:50:35;;;;;;;0.98;0.60;;;24.00;99.90;;;;;;5088929;28;20711;-61
2021/07/26 08:53:04;;;;;;;1.15;0.70;;;24.00;99.90;;;;;;5089117;28;20910;-61
2021/07/26 08:55:34;;;;;;;1.20;0.80;;;24.20;99.90;;;;;;5089051;28;20844;-61
2021/07/26 08:58:01;;;;;;;0.80;0.60;;;24.40;99.90;;;;;;5090001;28;20562;-61
2021/07/26 09:00:30;;;;;;;0.90;0.60;;;24.50;99.90;;;;;;5090812;28;20716;-62
2021/07/26 09:02:58;;;;;;;1.50;0.70;;;24.70;99.90;;;;;;5090225;28;20723;-61
2021/07/26 09:05:25;;;;;;;0.90;0.60;;;24.50;99.90;;;;;;5090989;28;20425;-61
2021/07/26 09:07:52;;;;;;;0.90;0.70;;;24.40;99.90;;;;;;5075118;28;20481;-62
2021/07/26 09:10:20;;;;;;;1.10;0.60;;;24.60;99.90;;;;;;5077135;28;20431;-62
2021/07/26 09:12:49;;;;;;;1.50;0.70;;;24.80;99.90;;;;;;5074265;28;20841;-61
2021/07/26 09:15:28;;;;;;;1.02;0.60;;;25.10;99.90;;;;;;5084306;28;20478;-61
2021/07/26 09:18:00;;;;;;;1.40;0.70;;;25.30;99.90;;;;;;5074375;28;20441;-61
2021/07/26 09:20:29;;;;;;;1.30;0.70;;;25.40;99.90;;;;;;5083128;28;20517;-60
2021/07/26 09:22:58;;;;;;;1.20;0.60;;;25.40;99.90;;;;;;5092282;28;20418;-59
2021/07/26 09:25:26;;;;;;;0.90;0.70;;;25.50;99.90;;;;;;5090681;28;20869;-59
2021/07/26 09:27:58;;;;;;;1.00;0.60;;;25.30;99.90;;;;;;5089146;28;20421;-60
2021/07/26 09:30:26;;;;;;;1.00;0.70;;;25.30;99.90;;;;;;5086837;28;20449;-61
2021/07/26 09:32:53;;;;;;;0.87;0.70;;;25.30;99.90;;;;;;5089184;28;20432;-62
2021/07/26 09:35:25;;;;;;;1.08;0.60;;;25.50;99.90;;;;;;5090167;28;20928;-60
2021/07/26 09:38:03;;;;;;;1.00;0.70;;;25.70;99.90;;;;;;5089788;28;20512;-62
2021/07/26 09:40:35;;;;;;;1.00;0.60;;;25.80;99.90;;;;;;5091945;28;20428;-60
2021/07/26 09:43:19;;;;;;;1.40;0.90;;;25.80;99.90;;;;;;5091737;28;20422;-62
2021/07/26 09:45:48;;;;;;;1.10;0.80;;;25.80;99.90;;;;;;5091677;28;20425;-61
2021/07/26 09:48:16;;;;;;;1.65;0.60;;;25.70;99.90;;;;;;5092439;28;20422;-62
2021/07/26 09:50:45;;;;;;;0.80;0.60;;;25.50;99.90;;;;;;5092566;28;20808;-62
2021/07/26 09:53:15;;;;;;;1.10;0.70;;;25.80;99.90;;;;;;5091846;28;20864;-62
2021/07/26 09:55:43;;;;;;;0.90;0.60;;;25.90;99.90;;;;;;5092860;28;20880;-62
2021/07/26 09:58:11;;;;;;;2.10;0.60;;;25.90;99.90;;;;;;5092936;28;20475;-62
2021/07/26 10:00:40;;;;;;;1.75;0.60;;;26.00;99.90;;;;;;5092723;28;20433;-62
2021/07/26 10:03:08;;;;;;;1.23;0.50;;;25.90;99.90;;;;;;5092393;28;20421;-62
2021/07/26 10:05:37;;;;;;;0.90;0.60;;;26.00;99.90;;;;;;5092160;28;20431;-62
2021/07/26 10:08:06;;;;;;;0.80;0.60;;;26.40;99.90;;;;;;5091517;28;20727;-62
2021/07/26 10:10:35;;;;;;;0.70;0.50;;;26.60;99.90;;;;;;5089627;28;20425;-62
2021/07/26 10:13:03;;;;;;;1.50;0.55;;;26.60;99.90;;;;;;5091506;28;20414;-63
2021/07/26 10:15:31;;;;;;;0.80;0.60;;;26.80;99.90;;;;;;5090002;28;20866;-63
2021/07/26 10:17:58;;;;;;;0.90;0.68;;;26.90;99.90;;;;;;5088727;28;20428;-63
2021/07/26 10:20:28;;;;;;;1.20;0.90;;;27.20;99.90;;;;;;5090154;28;20432;-64
2021/07/26 10:23:08;;;;;;;0.88;0.60;;;27.40;99.90;;;;;;5090819;28;20413;-63
2021/07/26 10:25:40;;;;;;;0.70;0.50;;;27.70;99.90;;;;;;5087530;28;20418;-64
2021/07/26 10:28:14;;;;;;;0.80;0.60;;;27.70;99.90;;;;;;5068361;28;20429;-64
2021/07/26 10:30:40;;;;;;;0.90;0.70;;;27.40;99.90;;;;;;5069664;28;20427;-62
2021/07/26 10:33:08;;;;;;;0.90;0.60;;;27.40;99.90;;;;;;5068994;28;20817;-63
2021/07/26 10:35:48;;;;;;;1.42;0.60;;;27.70;99.90;;;;;;5070505;28;20432;-64
2021/07/26 10:38:53;;;;;;;0.80;0.50;;;27.90;99.90;;;;;;5071466;28;20489;-67
2021/07/26 10:41:55;;;;;;;0.98;0.60;;;27.80;99.90;;;;;;5071541;28;20432;-64
2021/07/26 10:44:42;;;;;;;0.80;0.50;;;27.40;99.90;;;;;;5080759;28;20456;-65
2021/07/26 10:47:19;;;;;;;0.82;0.55;;;27.60;99.90;;;;;;5090596;28;20784;-63
2021/07/26 10:50:16;;;;;;;0.70;0.50;;;27.50;99.90;;;;;;5085734;28;20430;-64
2021/07/26 10:52:47;;;;;;;0.70;0.50;;;27.50;99.90;;;;;;5093157;28;20414;-64
2021/07/26 10:55:56;;;;;;;0.80;0.60;;;28.00;99.90;;;;;;5092620;28;20464;-64
2021/07/26 10:59:03;;;;;;;1.02;0.50;;;28.40;99.90;;;;;;5058202;28;20870;-65
2021/07/26 11:01:58;;;;;;;1.42;0.60;;;29.20;99.90;;;;;;5087220;28;20422;-64
2021/07/26 11:04:53;;;;;;;1.10;0.50;;;29.70;99.90;;;;;;5078497;28;20451;-68
2021/07/26 11:07:29;;;;;;;0.90;0.60;;;29.60;99.90;;;;;;5083709;28;20483;-66
2021/07/26 11:09:56;;;;;;;0.90;0.50;;;29.70;99.90;;;;;;5092542;28;20480;-66
2021/07/26 11:12:52;;;;;;;0.90;0.60;;;28.70;99.90;;;;;;5090710;28;20493;-67
2021/07/26 11:15:20;;;;;;;0.73;0.50;;;28.90;99.90;;;;;;5090938;28;20468;-66
2021/07/26 11:18:20;;;;;;;0.80;0.50;;;29.40;99.90;;;;;;5091083;28;21044;-64
2021/07/26 11:21:01;;;;;;;0.90;0.50;;;29.40;99.90;;;;;;5073423;28;20459;-65
2021/07/26 11:23:42;;;;;;;0.87;0.60;;;29.30;99.90;;;;;;5072074;28;20799;-60
2021/07/26 11:26:17;;;;;;;0.90;0.70;;;29.00;99.90;;;;;;5064774;28;20503;-60
2021/07/26 11:28:46;;;;;;;1.20;0.60;;;28.90;99.90;;;;;;5067681;28;20434;-59
2021/07/26 11:31:21;;;;;;;1.10;0.60;;;29.10;99.90;;;;;;5069126;28;20496;-61
2021/07/26 11:33:50;;;;;;;0.70;0.50;;;29.60;99.90;;;;;;5068330;28;20426;-60
2021/07/26 11:36:17;;;;;;;0.80;0.50;;;29.30;99.90;;;;;;5070062;28;20843;-62
2021/07/26 11:39:01;;;;;;;0.80;0.50;;;28.30;99.90;;;;;;5072084;28;20511;-60
2021/07/26 11:41:28;;;;;;;0.80;0.60;;;27.90;99.90;;;;;;5073756;28;20878;-60
2021/07/26 11:43:56;;;;;;;1.20;0.60;;;27.90;99.90;;;;;;5072688;28;20419;-60
2021/07/26 11:46:23;;;;;;;1.10;0.50;;;27.90;99.90;;;;;;5072944;28;20448;-59
2021/07/26 11:48:56;;;;;;;2.20;0.60;;;27.60;99.90;;;;;;5069757;28;20419;-60
2021/07/26 11:51:31;;;;;;;0.80;0.60;;;27.20;99.90;;;;;;5067011;28;20432;-59
2021/07/26 11:53:59;;;;;;;0.90;0.80;;;26.90;99.90;;;;;;5069013;28;20434;-60
2021/07/26 11:56:29;;;;;;;1.20;0.50;;;26.50;99.90;;;;;;5068800;28;20578;-61
2021/07/26 11:59:17;;;;;;;1.10;0.60;;;26.30;99.90;;;;;;5070607;28;20423;-61
2021/07/26 12:01:55;;;;;;;0.80;0.60;;;26.20;99.90;;;;;;5069091;28;20423;-61
2021/07/26 12:04:26;;;;;;;1.00;0.70;;;26.20;99.90;;;;;;5068875;28;20419;-60
2021/07/26 12:06:55;;;;;;;2.50;0.60;;;25.90;99.90;;;;;;5068132;28;20438;-60
2021/07/26 12:09:22;;;;;;;0.98;0.60;;;25.70;99.90;;;;;;5069198;28;20427;-61
2021/07/26 12:11:49;;;;;;;1.27;0.60;;;25.40;99.90;;;;;;5067664;28;20977;-61
2021/07/26 12:14:29;;;;;;;0.90;0.60;;;25.30;99.90;;;;;;5067635;28;20427;-61
2021/07/26 12:17:02;;;;;;;1.70;0.60;;;25.30;99.90;;;;;;5068357;28;20442;-60
2021/07/26 12:19:31;;;;;;;1.70;0.60;;;25.10;99.90;;;;;;5068662;28;20454;-60
2021/07/26 12:22:16;;;;;;;2.10;0.70;;;25.10;99.90;;;;;;5066914;28;20574;-60
2021/07/26 12:24:44;;;;;;;1.30;0.70;;;25.20;99.90;;;;;;5067738;28;20420;-60
2021/07/26 12:27:11;;;;;;;2.40;0.60;;;25.10;99.90;;;;;;5067925;28;20877;-59
2021/07/26 12:29:54;;;;;;;1.42;0.90;;;25.00;99.90;;;;;;5069154;28;20478;-60
2021/07/26 12:32:21;;;;;;;1.10;0.70;;;24.90;99.90;;;;;;5071809;28;20464;-59
2021/07/26 12:35:27;;;;;;;1.30;0.70;;;24.80;99.90;;;;;;5076933;28;20529;-58
2021/07/26 12:38:19;;;;;;;2.20;0.70;;;24.80;99.90;;;;;;5091567;28;20483;-59
2021/07/26 12:40:49;;;;;;;1.40;0.70;;;24.90;99.90;;;;;;5068757;28;20510;-58
2021/07/26 12:43:17;;;;;;;0.90;0.60;;;25.00;99.90;;;;;;5071759;28;20431;-58
2021/07/26 12:45:57;;;;;;;1.13;0.60;;;24.90;99.90;;;;;;5072447;28;20509;-59
2021/07/26 12:48:26;;;;;;;1.60;0.60;;;25.00;99.90;;;;;;5072209;28;20462;-60
2021/07/26 12:50:53;;;;;;;0.90;0.60;;;25.10;99.90;;;;;;5072494;28;20441;-58
2021/07/26 12:53:22;;;;;;;1.70;0.70;;;24.80;99.90;;;;;;5071366;28;20424;-59
2021/07/26 12:55:50;;;;;;;0.90;0.60;;;24.80;99.90;;;;;;5069186;28;20730;-59
2021/07/26 12:58:18;;;;;;;0.90;0.65;;;25.00;99.90;;;;;;5068987;28;20430;-59
2021/07/26 13:00:47;;;;;;;1.00;0.60;;;25.10;99.90;;;;;;5066108;28;20469;-58
2021/07/26 13:03:15;;;;;;;0.88;0.60;;;25.30;99.90;;;;;;5065966;28;20859;-58